sensor_id;sensor_type;location;lat;lon;timestamp;P1;durP1;ratioP1;P2;durP2;ratioP2
2538;SDS011;1280;49.760;9.664;2024-02-21T00:00:59;18.33;;;5.80;;
2538;SDS011;1280;49.760;9.664;2024-02-21T00:03:28;17.23;;;7.00;;
2538;SDS011;1280;49.760;9.664;2024-02-21T00:05:56;15.03;;;6.30;;
2538;SDS011;1280;49.760;9.664;2024-02-21T00:08:24;18.70;;;5.70;;
2538;SDS011;1280;49.760;9.664;2024-02-21T00:10:52;15.50;;;5.40;;
2538;SDS011;1280;49.760;9.664;2024-02-21T00:13:20;20.07;;;5.67;;
2538;SDS011;1280;49.760;9.664;2024-02-21T00:15:49;21.60;;;6.13;;
2538;SDS011;1280;49.760;9.664;2024-02-21T00:18:18;15.73;;;6.23;;
2538;SDS011;1280;49.760;9.664;2024-02-21T00:20:46;16.30;;;5.17;;
2538;SDS011;1280;49.760;9.664;2024-02-21T00:23:14;18.03;;;6.33;;
2538;SDS011;1280;49.760;9.664;2024-02-21T00:25:42;14.37;;;5.47;;
2538;SDS011;1280;49.760;9.664;2024-02-21T00:28:11;15.53;;;5.93;;
2538;SDS011;1280;49.760;9.664;2024-02-21T00:30:39;20.93;;;6.20;;
2538;SDS011;1280;49.760;9.664;2024-02-21T00:33:07;17.03;;;5.40;;
2538;SDS011;1280;49.760;9.664;2024-02-21T00:35:36;14.53;;;5.20;;
2538;SDS011;1280;49.760;9.664;2024-02-21T00:38:04;22.67;;;6.20;;
2538;SDS011;1280;49.760;9.664;2024-02-21T00:40:33;16.37;;;6.00;;
2538;SDS011;1280;49.760;9.664;2024-02-21T00:43:03;12.00;;;4.93;;
2538;SDS011;1280;49.760;9.664;2024-02-21T00:45:31;16.93;;;5.33;;
2538;SDS011;1280;49.760;9.664;2024-02-21T00:47:59;20.70;;;6.57;;
2538;SDS011;1280;49.760;9.664;2024-02-21T00:50:27;15.53;;;5.97;;
2538;SDS011;1280;49.760;9.664;2024-02-21T00:52:57;13.20;;;5.90;;
2538;SDS011;1280;49.760;9.664;2024-02-21T00:55:25;14.17;;;5.80;;
2538;SDS011;1280;49.760;9.664;2024-02-21T00:57:53;25.27;;;7.37;;
2538;SDS011;1280;49.760;9.664;2024-02-21T01:00:21;19.20;;;6.73;;
2538;SDS011;1280;49.760;9.664;2024-02-21T01:02:49;21.13;;;6.00;;
2538;SDS011;1280;49.760;9.664;2024-02-21T01:05:19;20.97;;;6.63;;
2538;SDS011;1280;49.760;9.664;2024-02-21T01:07:51;18.73;;;6.03;;
2538;SDS011;1280;49.760;9.664;2024-02-21T01:10:20;18.90;;;5.80;;
2538;SDS011;1280;49.760;9.664;2024-02-21T01:12:49;16.87;;;6.37;;
2538;SDS011;1280;49.760;9.664;2024-02-21T01:15:17;27.03;;;6.80;;
2538;SDS011;1280;49.760;9.664;2024-02-21T01:17:45;14.33;;;5.90;;
2538;SDS011;1280;49.760;9.664;2024-02-21T01:20:13;22.43;;;5.87;;
2538;SDS011;1280;49.760;9.664;2024-02-21T01:22:42;21.20;;;5.97;;
2538;SDS011;1280;49.760;9.664;2024-02-21T01:25:10;19.00;;;6.30;;
2538;SDS011;1280;49.760;9.664;2024-02-21T01:27:39;16.90;;;6.37;;
2538;SDS011;1280;49.760;9.664;2024-02-21T01:30:08;15.07;;;6.00;;
2538;SDS011;1280;49.760;9.664;2024-02-21T01:32:38;16.00;;;5.93;;
2538;SDS011;1280;49.760;9.664;2024-02-21T01:35:07;19.10;;;6.10;;
2538;SDS011;1280;49.760;9.664;2024-02-21T01:37:36;18.67;;;6.50;;
2538;SDS011;1280;49.760;9.664;2024-02-21T01:40:04;18.53;;;5.87;;
2538;SDS011;1280;49.760;9.664;2024-02-21T01:42:33;17.77;;;5.83;;
2538;SDS011;1280;49.760;9.664;2024-02-21T01:45:07;23.10;;;7.00;;
2538;SDS011;1280;49.760;9.664;2024-02-21T01:47:35;16.60;;;6.70;;
2538;SDS011;1280;49.760;9.664;2024-02-21T01:50:05;16.33;;;5.60;;
2538;SDS011;1280;49.760;9.664;2024-02-21T01:52:34;16.03;;;6.53;;
2538;SDS011;1280;49.760;9.664;2024-02-21T01:55:04;19.80;;;8.07;;
2538;SDS011;1280;49.760;9.664;2024-02-21T01:57:33;25.93;;;7.53;;
2538;SDS011;1280;49.760;9.664;2024-02-21T02:00:04;16.20;;;7.23;;
2538;SDS011;1280;49.760;9.664;2024-02-21T02:02:36;22.20;;;8.23;;
2538;SDS011;1280;49.760;9.664;2024-02-21T02:05:07;27.87;;;7.60;;
2538;SDS011;1280;49.760;9.664;2024-02-21T02:07:35;16.97;;;6.87;;
2538;SDS011;1280;49.760;9.664;2024-02-21T02:10:04;15.30;;;7.50;;
2538;SDS011;1280;49.760;9.664;2024-02-21T02:12:33;17.60;;;7.70;;
2538;SDS011;1280;49.760;9.664;2024-02-21T02:15:01;21.57;;;6.70;;
2538;SDS011;1280;49.760;9.664;2024-02-21T02:17:33;22.23;;;6.97;;
2538;SDS011;1280;49.760;9.664;2024-02-21T02:20:01;23.73;;;8.70;;
2538;SDS011;1280;49.760;9.664;2024-02-21T02:22:32;22.70;;;8.13;;
2538;SDS011;1280;49.760;9.664;2024-02-21T02:25:06;24.63;;;7.40;;
2538;SDS011;1280;49.760;9.664;2024-02-21T02:27:40;17.53;;;7.90;;
2538;SDS011;1280;49.760;9.664;2024-02-21T02:30:10;19.63;;;8.17;;
2538;SDS011;1280;49.760;9.664;2024-02-21T02:32:39;19.83;;;7.80;;
2538;SDS011;1280;49.760;9.664;2024-02-21T02:35:07;17.50;;;7.10;;
2538;SDS011;1280;49.760;9.664;2024-02-21T02:37:35;18.30;;;7.10;;
2538;SDS011;1280;49.760;9.664;2024-02-21T02:40:06;24.87;;;7.30;;
2538;SDS011;1280;49.760;9.664;2024-02-21T02:42:36;19.47;;;7.90;;
2538;SDS011;1280;49.760;9.664;2024-02-21T02:45:04;18.03;;;7.70;;
2538;SDS011;1280;49.760;9.664;2024-02-21T02:47:33;17.50;;;7.13;;
2538;SDS011;1280;49.760;9.664;2024-02-21T02:50:01;17.60;;;6.60;;
2538;SDS011;1280;49.760;9.664;2024-02-21T02:52:30;19.57;;;7.00;;
2538;SDS011;1280;49.760;9.664;2024-02-21T02:54:58;14.80;;;6.20;;
2538;SDS011;1280;49.760;9.664;2024-02-21T02:57:29;15.77;;;7.43;;
2538;SDS011;1280;49.760;9.664;2024-02-21T02:59:57;26.43;;;7.30;;
2538;SDS011;1280;49.760;9.664;2024-02-21T03:02:25;18.43;;;7.27;;
2538;SDS011;1280;49.760;9.664;2024-02-21T03:04:55;15.50;;;6.93;;
2538;SDS011;1280;49.760;9.664;2024-02-21T03:07:24;20.50;;;7.43;;
2538;SDS011;1280;49.760;9.664;2024-02-21T03:09:52;18.33;;;7.57;;
2538;SDS011;1280;49.760;9.664;2024-02-21T03:12:21;20.17;;;6.83;;
2538;SDS011;1280;49.760;9.664;2024-02-21T03:14:55;18.17;;;7.27;;
2538;SDS011;1280;49.760;9.664;2024-02-21T03:17:24;16.00;;;6.63;;
2538;SDS011;1280;49.760;9.664;2024-02-21T03:19:53;21.83;;;6.30;;
2538;SDS011;1280;49.760;9.664;2024-02-21T03:22:21;17.63;;;6.70;;
2538;SDS011;1280;49.760;9.664;2024-02-21T03:24:49;18.93;;;7.03;;
2538;SDS011;1280;49.760;9.664;2024-02-21T03:27:17;19.77;;;7.43;;
2538;SDS011;1280;49.760;9.664;2024-02-21T03:29:45;20.80;;;7.30;;
2538;SDS011;1280;49.760;9.664;2024-02-21T03:32:15;16.80;;;7.03;;
2538;SDS011;1280;49.760;9.664;2024-02-21T03:34:43;21.70;;;7.30;;
2538;SDS011;1280;49.760;9.664;2024-02-21T03:37:11;14.23;;;6.20;;
2538;SDS011;1280;49.760;9.664;2024-02-21T03:39:40;17.83;;;6.40;;
2538;SDS011;1280;49.760;9.664;2024-02-21T03:42:09;16.27;;;6.40;;
2538;SDS011;1280;49.760;9.664;2024-02-21T03:44:37;18.07;;;7.70;;
2538;SDS011;1280;49.760;9.664;2024-02-21T03:47:05;14.07;;;6.77;;
2538;SDS011;1280;49.760;9.664;2024-02-21T03:49:40;26.93;;;7.53;;
2538;SDS011;1280;49.760;9.664;2024-02-21T03:52:08;17.03;;;6.90;;
2538;SDS011;1280;49.760;9.664;2024-02-21T03:54:37;15.33;;;6.23;;
2538;SDS011;1280;49.760;9.664;2024-02-21T03:57:05;18.63;;;6.80;;
2538;SDS011;1280;49.760;9.664;2024-02-21T03:59:33;24.67;;;7.80;;
2538;SDS011;1280;49.760;9.664;2024-02-21T04:02:01;16.27;;;7.13;;
2538;SDS011;1280;49.760;9.664;2024-02-21T04:04:30;22.77;;;8.37;;
2538;SDS011;1280;49.760;9.664;2024-02-21T04:06:59;20.40;;;7.30;;
2538;SDS011;1280;49.760;9.664;2024-02-21T04:09:29;17.97;;;7.33;;
2538;SDS011;1280;49.760;9.664;2024-02-21T04:11:57;21.07;;;7.70;;
2538;SDS011;1280;49.760;9.664;2024-02-21T04:14:25;22.30;;;6.73;;
2538;SDS011;1280;49.760;9.664;2024-02-21T04:19:24;19.17;;;6.90;;
2538;SDS011;1280;49.760;9.664;2024-02-21T04:21:52;22.27;;;7.17;;
2538;SDS011;1280;49.760;9.664;2024-02-21T04:24:22;16.37;;;6.33;;
2538;SDS011;1280;49.760;9.664;2024-02-21T04:26:52;19.20;;;6.50;;
2538;SDS011;1280;49.760;9.664;2024-02-21T04:29:20;18.30;;;6.87;;
2538;SDS011;1280;49.760;9.664;2024-02-21T04:31:48;15.23;;;7.27;;
2538;SDS011;1280;49.760;9.664;2024-02-21T04:34:16;18.70;;;6.27;;
2538;SDS011;1280;49.760;9.664;2024-02-21T04:36:44;19.63;;;6.60;;
2538;SDS011;1280;49.760;9.664;2024-02-21T04:39:12;20.97;;;6.87;;
2538;SDS011;1280;49.760;9.664;2024-02-21T04:41:41;23.93;;;8.27;;
2538;SDS011;1280;49.760;9.664;2024-02-21T04:44:10;14.77;;;6.77;;
2538;SDS011;1280;49.760;9.664;2024-02-21T04:46:38;20.53;;;8.10;;
2538;SDS011;1280;49.760;9.664;2024-02-21T04:49:10;19.37;;;6.90;;
2538;SDS011;1280;49.760;9.664;2024-02-21T04:51:39;18.37;;;7.60;;
2538;SDS011;1280;49.760;9.664;2024-02-21T04:54:07;18.67;;;6.53;;
2538;SDS011;1280;49.760;9.664;2024-02-21T04:56:35;19.10;;;8.00;;
2538;SDS011;1280;49.760;9.664;2024-02-21T04:59:05;16.87;;;7.57;;
2538;SDS011;1280;49.760;9.664;2024-02-21T05:01:32;24.97;;;8.33;;
2538;SDS011;1280;49.760;9.664;2024-02-21T05:04:01;12.43;;;7.33;;
2538;SDS011;1280;49.760;9.664;2024-02-21T05:06:29;17.67;;;6.90;;
2538;SDS011;1280;49.760;9.664;2024-02-21T05:08:57;16.63;;;5.83;;
2538;SDS011;1280;49.760;9.664;2024-02-21T05:11:26;23.77;;;7.97;;
2538;SDS011;1280;49.760;9.664;2024-02-21T05:13:54;23.00;;;7.00;;
2538;SDS011;1280;49.760;9.664;2024-02-21T05:16:24;12.50;;;6.10;;
2538;SDS011;1280;49.760;9.664;2024-02-21T05:18:52;19.27;;;8.60;;
2538;SDS011;1280;49.760;9.664;2024-02-21T05:21:20;17.13;;;7.07;;
2538;SDS011;1280;49.760;9.664;2024-02-21T05:23:50;15.20;;;6.23;;
2538;SDS011;1280;49.760;9.664;2024-02-21T05:26:21;18.90;;;7.43;;
2538;SDS011;1280;49.760;9.664;2024-02-21T05:28:49;22.13;;;7.57;;
2538;SDS011;1280;49.760;9.664;2024-02-21T05:31:19;18.40;;;7.93;;
2538;SDS011;1280;49.760;9.664;2024-02-21T05:33:49;16.77;;;7.60;;
2538;SDS011;1280;49.760;9.664;2024-02-21T05:36:17;14.70;;;7.87;;
2538;SDS011;1280;49.760;9.664;2024-02-21T05:38:45;17.67;;;7.73;;
2538;SDS011;1280;49.760;9.664;2024-02-21T05:43:49;18.57;;;8.40;;
2538;SDS011;1280;49.760;9.664;2024-02-21T05:46:18;16.87;;;8.43;;
2538;SDS011;1280;49.760;9.664;2024-02-21T05:48:47;24.30;;;8.83;;
2538;SDS011;1280;49.760;9.664;2024-02-21T05:51:16;17.87;;;8.00;;
2538;SDS011;1280;49.760;9.664;2024-02-21T05:53:44;17.83;;;7.63;;
2538;SDS011;1280;49.760;9.664;2024-02-21T05:56:13;20.67;;;7.30;;
2538;SDS011;1280;49.760;9.664;2024-02-21T05:58:41;25.27;;;8.87;;
2538;SDS011;1280;49.760;9.664;2024-02-21T06:01:10;15.23;;;7.30;;
2538;SDS011;1280;49.760;9.664;2024-02-21T06:03:39;19.20;;;8.20;;
2538;SDS011;1280;49.760;9.664;2024-02-21T06:06:10;17.33;;;8.40;;
2538;SDS011;1280;49.760;9.664;2024-02-21T06:08:39;16.40;;;7.97;;
2538;SDS011;1280;49.760;9.664;2024-02-21T06:11:07;17.90;;;7.90;;
2538;SDS011;1280;49.760;9.664;2024-02-21T06:13:37;15.93;;;7.40;;
2538;SDS011;1280;49.760;9.664;2024-02-21T06:16:06;16.67;;;7.77;;
2538;SDS011;1280;49.760;9.664;2024-02-21T06:18:35;18.73;;;7.97;;
2538;SDS011;1280;49.760;9.664;2024-02-21T06:21:04;16.40;;;7.27;;
2538;SDS011;1280;49.760;9.664;2024-02-21T06:23:33;21.77;;;7.67;;
2538;SDS011;1280;49.760;9.664;2024-02-21T06:26:04;14.73;;;7.47;;
2538;SDS011;1280;49.760;9.664;2024-02-21T06:28:32;20.70;;;7.17;;
2538;SDS011;1280;49.760;9.664;2024-02-21T06:31:00;15.30;;;7.00;;
2538;SDS011;1280;49.760;9.664;2024-02-21T06:33:28;19.37;;;8.30;;
2538;SDS011;1280;49.760;9.664;2024-02-21T06:35:56;19.70;;;8.93;;
2538;SDS011;1280;49.760;9.664;2024-02-21T06:38:24;18.40;;;8.50;;
2538;SDS011;1280;49.760;9.664;2024-02-21T06:40:54;18.57;;;8.60;;
2538;SDS011;1280;49.760;9.664;2024-02-21T06:43:22;16.27;;;8.37;;
2538;SDS011;1280;49.760;9.664;2024-02-21T06:45:50;21.03;;;8.80;;
2538;SDS011;1280;49.760;9.664;2024-02-21T06:48:19;17.53;;;8.67;;
2538;SDS011;1280;49.760;9.664;2024-02-21T06:50:48;20.93;;;8.90;;
2538;SDS011;1280;49.760;9.664;2024-02-21T06:53:16;18.00;;;8.83;;
2538;SDS011;1280;49.760;9.664;2024-02-21T06:55:44;26.87;;;10.00;;
2538;SDS011;1280;49.760;9.664;2024-02-21T06:58:14;20.73;;;9.23;;
2538;SDS011;1280;49.760;9.664;2024-02-21T07:00:43;19.60;;;8.33;;
2538;SDS011;1280;49.760;9.664;2024-02-21T07:03:11;21.57;;;8.70;;
2538;SDS011;1280;49.760;9.664;2024-02-21T07:05:39;19.73;;;9.30;;
2538;SDS011;1280;49.760;9.664;2024-02-21T07:08:07;16.10;;;8.20;;
2538;SDS011;1280;49.760;9.664;2024-02-21T07:10:36;18.63;;;8.93;;
2538;SDS011;1280;49.760;9.664;2024-02-21T07:13:04;19.50;;;8.40;;
2538;SDS011;1280;49.760;9.664;2024-02-21T07:15:33;17.80;;;8.60;;
2538;SDS011;1280;49.760;9.664;2024-02-21T07:18:03;18.83;;;8.00;;
2538;SDS011;1280;49.760;9.664;2024-02-21T07:20:31;21.03;;;8.90;;
2538;SDS011;1280;49.760;9.664;2024-02-21T07:23:03;18.13;;;8.13;;
2538;SDS011;1280;49.760;9.664;2024-02-21T07:25:31;19.80;;;8.67;;
2538;SDS011;1280;49.760;9.664;2024-02-21T07:28:00;18.60;;;8.80;;
2538;SDS011;1280;49.760;9.664;2024-02-21T07:30:29;15.43;;;8.37;;
2538;SDS011;1280;49.760;9.664;2024-02-21T07:33:01;17.37;;;8.87;;
2538;SDS011;1280;49.760;9.664;2024-02-21T07:35:29;20.87;;;8.07;;
2538;SDS011;1280;49.760;9.664;2024-02-21T07:37:58;22.87;;;9.83;;
2538;SDS011;1280;49.760;9.664;2024-02-21T07:40:28;18.33;;;9.90;;
2538;SDS011;1280;49.760;9.664;2024-02-21T07:42:56;24.57;;;9.10;;
2538;SDS011;1280;49.760;9.664;2024-02-21T07:45:24;20.80;;;8.40;;
2538;SDS011;1280;49.760;9.664;2024-02-21T07:47:53;20.87;;;9.50;;
2538;SDS011;1280;49.760;9.664;2024-02-21T07:50:22;26.40;;;10.03;;
2538;SDS011;1280;49.760;9.664;2024-02-21T07:52:50;22.00;;;9.50;;
2538;SDS011;1280;49.760;9.664;2024-02-21T07:55:18;20.03;;;11.10;;
2538;SDS011;1280;49.760;9.664;2024-02-21T07:57:46;27.70;;;11.17;;
2538;SDS011;1280;49.760;9.664;2024-02-21T08:00:16;28.67;;;12.60;;
2538;SDS011;1280;49.760;9.664;2024-02-21T08:02:47;18.50;;;10.63;;
2538;SDS011;1280;49.760;9.664;2024-02-21T08:05:16;25.70;;;8.87;;
2538;SDS011;1280;49.760;9.664;2024-02-21T08:07:46;21.83;;;8.70;;
2538;SDS011;1280;49.760;9.664;2024-02-21T08:10:16;16.10;;;7.70;;
2538;SDS011;1280;49.760;9.664;2024-02-21T08:12:45;17.93;;;8.97;;
2538;SDS011;1280;49.760;9.664;2024-02-21T08:15:13;18.20;;;7.70;;
2538;SDS011;1280;49.760;9.664;2024-02-21T08:17:42;15.70;;;7.97;;
2538;SDS011;1280;49.760;9.664;2024-02-21T08:20:10;18.77;;;7.70;;
2538;SDS011;1280;49.760;9.664;2024-02-21T08:22:38;21.23;;;7.40;;
2538;SDS011;1280;49.760;9.664;2024-02-21T08:25:08;20.60;;;7.00;;
2538;SDS011;1280;49.760;9.664;2024-02-21T08:27:37;30.23;;;15.40;;
2538;SDS011;1280;49.760;9.664;2024-02-21T08:30:06;22.20;;;11.40;;
2538;SDS011;1280;49.760;9.664;2024-02-21T08:32:35;18.37;;;8.33;;
2538;SDS011;1280;49.760;9.664;2024-02-21T08:35:04;16.83;;;8.27;;
2538;SDS011;1280;49.760;9.664;2024-02-21T08:37:33;16.97;;;7.70;;
2538;SDS011;1280;49.760;9.664;2024-02-21T08:40:01;18.67;;;8.00;;
2538;SDS011;1280;49.760;9.664;2024-02-21T08:42:36;15.30;;;6.97;;
2538;SDS011;1280;49.760;9.664;2024-02-21T08:45:07;20.67;;;7.57;;
2538;SDS011;1280;49.760;9.664;2024-02-21T08:47:36;19.93;;;7.80;;
2538;SDS011;1280;49.760;9.664;2024-02-21T08:50:06;23.70;;;7.00;;
2538;SDS011;1280;49.760;9.664;2024-02-21T08:52:52;17.37;;;7.30;;
2538;SDS011;1280;49.760;9.664;2024-02-21T08:55:20;17.33;;;6.70;;
2538;SDS011;1280;49.760;9.664;2024-02-21T08:57:53;21.23;;;7.30;;
2538;SDS011;1280;49.760;9.664;2024-02-21T09:00:21;15.83;;;6.30;;
2538;SDS011;1280;49.760;9.664;2024-02-21T09:02:54;16.63;;;7.00;;
2538;SDS011;1280;49.760;9.664;2024-02-21T09:05:23;15.27;;;6.57;;
2538;SDS011;1280;49.760;9.664;2024-02-21T09:07:51;16.10;;;6.80;;
2538;SDS011;1280;49.760;9.664;2024-02-21T09:10:20;14.27;;;6.40;;
2538;SDS011;1280;49.760;9.664;2024-02-21T09:12:48;17.10;;;6.53;;
2538;SDS011;1280;49.760;9.664;2024-02-21T09:15:18;14.20;;;6.63;;
2538;SDS011;1280;49.760;9.664;2024-02-21T09:17:47;14.30;;;6.77;;
2538;SDS011;1280;49.760;9.664;2024-02-21T09:20:15;20.60;;;6.33;;
2538;SDS011;1280;49.760;9.664;2024-02-21T09:22:45;13.87;;;5.93;;
2538;SDS011;1280;49.760;9.664;2024-02-21T09:25:14;15.03;;;5.57;;
2538;SDS011;1280;49.760;9.664;2024-02-21T09:27:44;21.50;;;6.50;;
2538;SDS011;1280;49.760;9.664;2024-02-21T09:30:13;15.17;;;5.70;;
2538;SDS011;1280;49.760;9.664;2024-02-21T09:32:43;14.50;;;5.87;;
2538;SDS011;1280;49.760;9.664;2024-02-21T09:35:12;15.43;;;5.50;;
2538;SDS011;1280;49.760;9.664;2024-02-21T09:37:40;16.30;;;5.70;;
2538;SDS011;1280;49.760;9.664;2024-02-21T09:40:09;15.47;;;5.57;;
2538;SDS011;1280;49.760;9.664;2024-02-21T09:42:38;12.23;;;4.90;;
2538;SDS011;1280;49.760;9.664;2024-02-21T09:45:07;16.67;;;6.20;;
2538;SDS011;1280;49.760;9.664;2024-02-21T09:47:46;12.77;;;6.40;;
2538;SDS011;1280;49.760;9.664;2024-02-21T09:50:26;21.07;;;5.67;;
2538;SDS011;1280;49.760;9.664;2024-02-21T09:52:55;13.13;;;5.30;;
2538;SDS011;1280;49.760;9.664;2024-02-21T09:55:25;13.70;;;4.90;;
2538;SDS011;1280;49.760;9.664;2024-02-21T09:57:54;13.53;;;5.53;;
2538;SDS011;1280;49.760;9.664;2024-02-21T10:00:25;13.93;;;5.33;;
2538;SDS011;1280;49.760;9.664;2024-02-21T10:02:56;16.77;;;5.77;;
2538;SDS011;1280;49.760;9.664;2024-02-21T10:05:24;11.47;;;5.40;;
2538;SDS011;1280;49.760;9.664;2024-02-21T10:07:55;15.30;;;5.50;;
2538;SDS011;1280;49.760;9.664;2024-02-21T10:10:24;16.20;;;4.40;;
2538;SDS011;1280;49.760;9.664;2024-02-21T10:12:54;12.03;;;4.90;;
2538;SDS011;1280;49.760;9.664;2024-02-21T10:15:22;13.60;;;5.30;;
2538;SDS011;1280;49.760;9.664;2024-02-21T10:17:59;11.20;;;4.50;;
2538;SDS011;1280;49.760;9.664;2024-02-21T10:20:31;15.40;;;4.53;;
2538;SDS011;1280;49.760;9.664;2024-02-21T10:23:03;13.03;;;4.60;;
2538;SDS011;1280;49.760;9.664;2024-02-21T10:25:36;15.30;;;5.50;;
2538;SDS011;1280;49.760;9.664;2024-02-21T10:28:08;17.93;;;5.00;;
2538;SDS011;1280;49.760;9.664;2024-02-21T10:33:17;10.53;;;4.50;;
2538;SDS011;1280;49.760;9.664;2024-02-21T10:35:47;13.53;;;4.17;;
2538;SDS011;1280;49.760;9.664;2024-02-21T10:38:16;12.80;;;4.50;;
2538;SDS011;1280;49.760;9.664;2024-02-21T10:40:44;12.67;;;4.30;;
2538;SDS011;1280;49.760;9.664;2024-02-21T10:43:14;12.43;;;3.90;;
2538;SDS011;1280;49.760;9.664;2024-02-21T10:45:45;11.47;;;4.47;;
2538;SDS011;1280;49.760;9.664;2024-02-21T10:48:15;14.70;;;4.63;;
2538;SDS011;1280;49.760;9.664;2024-02-21T10:50:51;14.57;;;3.77;;
2538;SDS011;1280;49.760;9.664;2024-02-21T10:53:29;11.33;;;3.80;;
2538;SDS011;1280;49.760;9.664;2024-02-21T10:56:11;14.90;;;3.93;;
2538;SDS011;1280;49.760;9.664;2024-02-21T10:58:48;9.90;;;4.77;;
2538;SDS011;1280;49.760;9.664;2024-02-21T11:01:17;16.23;;;4.80;;
2538;SDS011;1280;49.760;9.664;2024-02-21T11:03:47;11.40;;;5.00;;
2538;SDS011;1280;49.760;9.664;2024-02-21T11:06:22;10.60;;;4.60;;
2538;SDS011;1280;49.760;9.664;2024-02-21T11:09:02;15.80;;;5.07;;
2538;SDS011;1280;49.760;9.664;2024-02-21T11:11:35;12.30;;;4.50;;
2538;SDS011;1280;49.760;9.664;2024-02-21T11:14:08;18.30;;;4.77;;
2538;SDS011;1280;49.760;9.664;2024-02-21T11:16:37;16.70;;;4.97;;
2538;SDS011;1280;49.760;9.664;2024-02-21T11:19:07;12.90;;;4.50;;
2538;SDS011;1280;49.760;9.664;2024-02-21T11:21:40;14.60;;;4.97;;
2538;SDS011;1280;49.760;9.664;2024-02-21T11:24:09;13.03;;;3.97;;
2538;SDS011;1280;49.760;9.664;2024-02-21T11:26:38;11.13;;;4.10;;
2538;SDS011;1280;49.760;9.664;2024-02-21T11:29:08;9.93;;;3.57;;
2538;SDS011;1280;49.760;9.664;2024-02-21T11:31:40;14.87;;;4.00;;
2538;SDS011;1280;49.760;9.664;2024-02-21T11:34:09;18.20;;;4.40;;
2538;SDS011;1280;49.760;9.664;2024-02-21T11:36:47;18.13;;;3.90;;
2538;SDS011;1280;49.760;9.664;2024-02-21T11:39:20;10.57;;;4.20;;
2538;SDS011;1280;49.760;9.664;2024-02-21T11:42:00;10.53;;;4.13;;
2538;SDS011;1280;49.760;9.664;2024-02-21T11:44:29;11.83;;;3.83;;
2538;SDS011;1280;49.760;9.664;2024-02-21T11:46:57;12.03;;;3.70;;
2538;SDS011;1280;49.760;9.664;2024-02-21T11:49:28;12.40;;;3.83;;
2538;SDS011;1280;49.760;9.664;2024-02-21T11:52:01;10.50;;;3.37;;
2538;SDS011;1280;49.760;9.664;2024-02-21T11:54:30;13.17;;;3.53;;
2538;SDS011;1280;49.760;9.664;2024-02-21T11:56:59;10.77;;;3.40;;
2538;SDS011;1280;49.760;9.664;2024-02-21T11:59:29;16.33;;;3.80;;
2538;SDS011;1280;49.760;9.664;2024-02-21T12:01:58;11.30;;;4.03;;
2538;SDS011;1280;49.760;9.664;2024-02-21T12:04:27;11.93;;;3.50;;
2538;SDS011;1280;49.760;9.664;2024-02-21T12:06:57;10.30;;;3.53;;
2538;SDS011;1280;49.760;9.664;2024-02-21T12:09:27;9.40;;;2.93;;
2538;SDS011;1280;49.760;9.664;2024-02-21T12:11:58;8.40;;;2.70;;
2538;SDS011;1280;49.760;9.664;2024-02-21T12:14:27;10.00;;;3.00;;
2538;SDS011;1280;49.760;9.664;2024-02-21T12:16:56;10.30;;;3.40;;
2538;SDS011;1280;49.760;9.664;2024-02-21T12:19:28;7.50;;;2.80;;
2538;SDS011;1280;49.760;9.664;2024-02-21T12:21:58;13.23;;;3.60;;
2538;SDS011;1280;49.760;9.664;2024-02-21T12:24:31;11.57;;;2.67;;
2538;SDS011;1280;49.760;9.664;2024-02-21T12:26:59;8.67;;;3.10;;
2538;SDS011;1280;49.760;9.664;2024-02-21T12:29:30;6.90;;;2.70;;
2538;SDS011;1280;49.760;9.664;2024-02-21T12:31:59;9.60;;;3.07;;
2538;SDS011;1280;49.760;9.664;2024-02-21T12:34:27;12.70;;;3.63;;
2538;SDS011;1280;49.760;9.664;2024-02-21T12:37:13;13.03;;;3.03;;
2538;SDS011;1280;49.760;9.664;2024-02-21T12:39:44;12.87;;;2.63;;
2538;SDS011;1280;49.760;9.664;2024-02-21T12:42:13;8.50;;;2.70;;
2538;SDS011;1280;49.760;9.664;2024-02-21T12:44:41;11.80;;;3.20;;
2538;SDS011;1280;49.760;9.664;2024-02-21T12:47:09;7.67;;;2.47;;
2538;SDS011;1280;49.760;9.664;2024-02-21T12:49:38;7.77;;;2.90;;
2538;SDS011;1280;49.760;9.664;2024-02-21T12:52:11;10.70;;;2.40;;
2538;SDS011;1280;49.760;9.664;2024-02-21T12:54:40;13.07;;;3.37;;
2538;SDS011;1280;49.760;9.664;2024-02-21T12:57:10;14.27;;;3.03;;
2538;SDS011;1280;49.760;9.664;2024-02-21T12:59:38;9.90;;;3.00;;
2538;SDS011;1280;49.760;9.664;2024-02-21T13:02:06;14.20;;;3.30;;
2538;SDS011;1280;49.760;9.664;2024-02-21T13:04:35;10.73;;;3.47;;
2538;SDS011;1280;49.760;9.664;2024-02-21T13:07:07;11.70;;;3.90;;
2538;SDS011;1280;49.760;9.664;2024-02-21T13:09:35;12.20;;;3.53;;
2538;SDS011;1280;49.760;9.664;2024-02-21T13:12:03;11.80;;;3.97;;
2538;SDS011;1280;49.760;9.664;2024-02-21T13:14:34;11.00;;;3.10;;
2538;SDS011;1280;49.760;9.664;2024-02-21T13:17:05;10.17;;;3.27;;
2538;SDS011;1280;49.760;9.664;2024-02-21T13:19:33;10.03;;;3.17;;
2538;SDS011;1280;49.760;9.664;2024-02-21T13:22:02;8.27;;;3.70;;
2538;SDS011;1280;49.760;9.664;2024-02-21T13:24:30;10.77;;;3.07;;
2538;SDS011;1280;49.760;9.664;2024-02-21T13:26:59;8.60;;;3.53;;
2538;SDS011;1280;49.760;9.664;2024-02-21T13:29:28;12.63;;;3.60;;
2538;SDS011;1280;49.760;9.664;2024-02-21T13:31:57;10.60;;;3.67;;
2538;SDS011;1280;49.760;9.664;2024-02-21T13:34:27;11.57;;;3.20;;
2538;SDS011;1280;49.760;9.664;2024-02-21T13:36:55;12.40;;;3.20;;
2538;SDS011;1280;49.760;9.664;2024-02-21T13:39:23;14.10;;;3.73;;
2538;SDS011;1280;49.760;9.664;2024-02-21T13:41:51;11.70;;;3.50;;
2538;SDS011;1280;49.760;9.664;2024-02-21T13:44:19;12.70;;;3.97;;
2538;SDS011;1280;49.760;9.664;2024-02-21T13:46:47;11.17;;;2.87;;
2538;SDS011;1280;49.760;9.664;2024-02-21T13:49:18;9.00;;;2.40;;
2538;SDS011;1280;49.760;9.664;2024-02-21T13:51:47;6.97;;;2.90;;
2538;SDS011;1280;49.760;9.664;2024-02-21T13:54:14;13.30;;;3.27;;
2538;SDS011;1280;49.760;9.664;2024-02-21T13:56:45;12.33;;;3.40;;
2538;SDS011;1280;49.760;9.664;2024-02-21T13:59:13;11.20;;;2.83;;
2538;SDS011;1280;49.760;9.664;2024-02-21T14:01:41;16.40;;;3.47;;
2538;SDS011;1280;49.760;9.664;2024-02-21T14:04:10;12.63;;;3.63;;
2538;SDS011;1280;49.760;9.664;2024-02-21T14:06:39;11.53;;;3.40;;
2538;SDS011;1280;49.760;9.664;2024-02-21T14:09:10;8.43;;;3.20;;
2538;SDS011;1280;49.760;9.664;2024-02-21T14:11:38;9.87;;;2.87;;
2538;SDS011;1280;49.760;9.664;2024-02-21T14:14:08;11.00;;;3.00;;
2538;SDS011;1280;49.760;9.664;2024-02-21T14:16:36;13.37;;;2.77;;
2538;SDS011;1280;49.760;9.664;2024-02-21T14:19:05;16.30;;;2.97;;
2538;SDS011;1280;49.760;9.664;2024-02-21T14:21:35;11.97;;;3.30;;
2538;SDS011;1280;49.760;9.664;2024-02-21T14:24:05;6.70;;;2.67;;
2538;SDS011;1280;49.760;9.664;2024-02-21T14:26:33;6.67;;;2.80;;
2538;SDS011;1280;49.760;9.664;2024-02-21T14:29:02;10.20;;;3.40;;
2538;SDS011;1280;49.760;9.664;2024-02-21T14:31:31;12.57;;;2.90;;
2538;SDS011;1280;49.760;9.664;2024-02-21T14:34:00;8.53;;;2.93;;
2538;SDS011;1280;49.760;9.664;2024-02-21T14:36:29;14.10;;;3.20;;
2538;SDS011;1280;49.760;9.664;2024-02-21T14:38:57;13.20;;;3.37;;
2538;SDS011;1280;49.760;9.664;2024-02-21T14:41:26;12.03;;;2.90;;
2538;SDS011;1280;49.760;9.664;2024-02-21T14:43:56;8.50;;;3.20;;
2538;SDS011;1280;49.760;9.664;2024-02-21T14:46:30;8.50;;;2.53;;
2538;SDS011;1280;49.760;9.664;2024-02-21T14:48:58;10.07;;;3.30;;
2538;SDS011;1280;49.760;9.664;2024-02-21T14:51:26;13.80;;;3.07;;
2538;SDS011;1280;49.760;9.664;2024-02-21T14:53:54;9.83;;;2.90;;
2538;SDS011;1280;49.760;9.664;2024-02-21T14:56:22;9.33;;;2.70;;
2538;SDS011;1280;49.760;9.664;2024-02-21T14:58:52;11.33;;;3.20;;
2538;SDS011;1280;49.760;9.664;2024-02-21T15:01:24;9.90;;;2.73;;
2538;SDS011;1280;49.760;9.664;2024-02-21T15:03:52;13.30;;;4.63;;
2538;SDS011;1280;49.760;9.664;2024-02-21T15:06:20;10.93;;;4.30;;
2538;SDS011;1280;49.760;9.664;2024-02-21T15:08:48;13.30;;;5.60;;
2538;SDS011;1280;49.760;9.664;2024-02-21T15:11:20;11.93;;;5.20;;
2538;SDS011;1280;49.760;9.664;2024-02-21T15:13:50;12.70;;;4.07;;
2538;SDS011;1280;49.760;9.664;2024-02-21T15:16:19;10.03;;;3.37;;
2538;SDS011;1280;49.760;9.664;2024-02-21T15:18:47;10.13;;;3.13;;
2538;SDS011;1280;49.760;9.664;2024-02-21T15:21:16;9.63;;;3.50;;
2538;SDS011;1280;49.760;9.664;2024-02-21T15:23:45;6.57;;;3.03;;